createdAt,value
2023-02-16T00:00:24.981Z,13.83
2023-02-16T00:05:31.057Z,13.80
2023-02-16T00:10:35.957Z,13.83
2023-02-16T00:15:38.260Z,13.90
2023-02-16T00:20:42.046Z,13.93
2023-02-16T00:25:44.431Z,13.40
2023-02-16T00:30:47.128Z,14.23
2023-02-16T00:35:50.770Z,13.43
2023-02-16T00:40:52.821Z,14.50
2023-02-16T00:45:56.581Z,14.10
2023-02-16T00:51:00.228Z,14.70
2023-02-16T00:56:02.123Z,13.53
2023-02-16T01:01:09.539Z,13.07
2023-02-16T01:06:31.179Z,13.13
2023-02-16T01:11:33.553Z,15.37
2023-02-16T01:16:38.972Z,13.87
2023-02-16T01:21:42.791Z,13.23
2023-02-16T01:26:48.532Z,13.03
2023-02-16T01:31:51.121Z,12.53
2023-02-16T01:36:54.819Z,13.97
2023-02-16T01:42:20.680Z,12.93
2023-02-16T01:47:35.677Z,12.60
2023-02-16T01:52:43.554Z,14.23
2023-02-16T01:57:48.761Z,13.27
2023-02-16T02:02:54.121Z,12.83
2023-02-16T02:08:03.231Z,13.40
2023-02-16T02:13:08.773Z,13.93
2023-02-16T02:18:10.803Z,13.57
2023-02-16T02:23:40.717Z,13.27
2023-02-16T02:28:52.497Z,13.07
2023-02-16T02:34:05.661Z,12.80
2023-02-16T02:39:21.282Z,14.37
2023-02-16T02:44:27.186Z,12.97
2023-02-16T02:49:29.218Z,13.53
2023-02-16T02:54:52.712Z,13.17
2023-02-16T03:00:17.298Z,13.93
2023-02-16T03:05:21.900Z,13.87
2023-02-16T03:10:44.857Z,12.83
2023-02-16T03:15:50.564Z,13.80
2023-02-16T03:21:09.923Z,14.43
2023-02-16T03:26:29.538Z,13.40
2023-02-16T03:31:36.078Z,14.83
2023-02-16T03:36:41.956Z,15.00
2023-02-16T03:41:52.728Z,14.67
2023-02-16T03:46:56.184Z,13.13
2023-02-16T03:51:58.000Z,12.83
2023-02-16T03:57:00.205Z,15.47
2023-02-16T04:02:03.598Z,14.63
2023-02-16T04:07:05.582Z,15.37
2023-02-16T04:12:25.774Z,15.50
2023-02-16T04:17:29.096Z,16.87
2023-02-16T04:22:31.294Z,16.40
2023-02-16T04:27:34.170Z,16.77
2023-02-16T04:32:37.518Z,16.37
2023-02-16T04:37:39.807Z,15.77
2023-02-16T04:42:41.988Z,15.07
2023-02-16T04:47:45.901Z,16.77
2023-02-16T04:52:48.233Z,13.97
2023-02-16T04:57:50.672Z,15.37
2023-02-16T05:02:54.160Z,15.73
2023-02-16T05:07:56.281Z,15.10
2023-02-16T05:13:16.028Z,15.87
2023-02-16T05:18:19.885Z,16.40
2023-02-16T05:23:22.040Z,15.50
2023-02-16T05:28:24.454Z,14.00
2023-02-16T05:33:28.384Z,15.30
2023-02-16T05:38:30.658Z,14.97
2023-02-16T05:43:32.987Z,14.53
2023-02-16T05:48:37.985Z,15.13
2023-02-16T05:53:41.553Z,15.27
2023-02-16T05:58:45.083Z,13.47
2023-02-16T06:03:49.520Z,13.70
2023-02-16T06:08:51.933Z,14.33
2023-02-16T06:13:58.151Z,12.67
2023-02-16T06:19:02.344Z,12.80
2023-02-16T06:24:05.594Z,13.33
2023-02-16T06:29:07.841Z,13.73
2023-02-16T06:34:11.486Z,13.47
2023-02-16T06:39:13.843Z,14.03
2023-02-16T06:44:17.876Z,14.20
2023-02-16T06:49:22.817Z,13.70
2023-02-16T06:54:25.537Z,13.43
2023-02-16T06:59:27.855Z,14.53
2023-02-16T07:04:31.718Z,14.50
2023-02-16T07:09:33.953Z,14.60
2023-02-16T07:14:36.540Z,16.17
2023-02-16T07:19:40.308Z,17.37
2023-02-16T07:24:42.287Z,17.10
2023-02-16T07:29:46.955Z,16.27
2023-02-16T07:34:50.462Z,17.90
2023-02-16T07:39:53.270Z,17.23
2023-02-16T07:44:55.323Z,17.93
2023-02-16T07:49:58.904Z,16.07
2023-02-16T07:55:01.776Z,14.87
2023-02-16T08:00:05.483Z,14.77
2023-02-16T08:05:09.708Z,16.50
2023-02-16T08:10:13.218Z,16.27
2023-02-16T08:15:15.777Z,20.53
2023-02-16T08:20:20.278Z,19.17
2023-02-16T08:25:22.794Z,17.60
2023-02-16T08:30:25.366Z,18.13
2023-02-16T08:35:29.241Z,19.30
2023-02-16T08:40:31.747Z,17.33
2023-02-16T08:45:34.148Z,16.23
2023-02-16T08:50:38.198Z,16.03
2023-02-16T08:55:40.626Z,17.40
2023-02-16T09:00:43.937Z,17.90
2023-02-16T09:05:47.876Z,16.53
2023-02-16T09:10:49.841Z,16.60
2023-02-16T09:15:53.298Z,16.13
2023-02-16T09:20:56.925Z,15.73
2023-02-16T09:26:03.572Z,16.07
2023-02-16T09:31:11.737Z,12.80
2023-02-16T09:36:15.529Z,12.37
2023-02-16T09:41:27.746Z,13.93
2023-02-16T09:46:32.011Z,13.93
2023-02-16T09:51:39.263Z,13.77
2023-02-16T09:56:50.861Z,12.17
2023-02-16T10:02:00.020Z,11.05
2023-02-16T10:07:15.955Z,8.25
2023-02-16T10:12:22.211Z,9.15
2023-02-16T10:17:29.629Z,8.70
2023-02-16T10:22:37.908Z,7.07
2023-02-16T10:27:42.772Z,7.03
2023-02-16T10:32:56.218Z,7.78
2023-02-16T10:38:06.955Z,7.78
2023-02-16T10:43:18.360Z,8.68
2023-02-16T10:48:21.892Z,9.07
2023-02-16T10:53:36.688Z,9.10
2023-02-16T10:58:42.804Z,8.75
2023-02-16T11:03:48.994Z,8.73
2023-02-16T11:08:57.356Z,8.38
2023-02-16T11:14:01.896Z,6.68
2023-02-16T11:19:09.031Z,6.50
2023-02-16T11:24:14.700Z,6.00
2023-02-16T11:29:21.202Z,6.18
2023-02-16T11:34:31.689Z,5.38
2023-02-16T11:39:40.332Z,6.32
2023-02-16T11:44:44.806Z,6.93
2023-02-16T11:49:47.197Z,6.88
2023-02-16T11:54:56.059Z,6.65
2023-02-16T12:00:00.325Z,7.38
2023-02-16T12:05:22.140Z,6.53
2023-02-16T12:10:32.709Z,8.25
2023-02-16T12:15:46.783Z,9.13
2023-02-16T12:20:59.082Z,9.77
2023-02-16T12:26:29.444Z,9.25
2023-02-16T12:31:42.568Z,9.18
2023-02-16T12:37:05.450Z,9.13
2023-02-16T12:42:22.543Z,9.20
2023-02-16T12:47:33.770Z,9.55
2023-02-16T12:52:41.620Z,9.15
2023-02-16T12:57:52.165Z,8.68
2023-02-16T13:03:03.058Z,8.88
2023-02-16T13:08:14.277Z,9.13
2023-02-16T13:13:22.062Z,9.43
2023-02-16T13:18:28.627Z,9.20
2023-02-16T13:23:48.100Z,9.75
2023-02-16T13:29:23.230Z,10.23
2023-02-16T13:34:47.896Z,9.63
2023-02-16T13:40:13.778Z,9.13
2023-02-16T13:45:21.189Z,8.95
2023-02-16T13:50:31.138Z,9.18
2023-02-16T13:55:37.613Z,9.85
2023-02-16T14:00:44.045Z,10.30
2023-02-16T14:05:48.093Z,11.25
2023-02-16T14:11:11.536Z,9.73
2023-02-16T14:16:30.396Z,9.90
2023-02-16T14:21:38.203Z,9.63
2023-02-16T14:26:55.244Z,9.88
2023-02-16T14:32:03.950Z,9.75
2023-02-16T14:37:41.461Z,9.30
2023-02-16T14:42:53.684Z,9.35
2023-02-16T14:48:05.718Z,10.00
2023-02-16T14:54:00.297Z,10.25
2023-02-16T14:59:06.348Z,9.82
2023-02-16T15:04:11.525Z,9.15
2023-02-16T15:09:18.271Z,9.82
2023-02-16T15:14:21.373Z,10.57
2023-02-16T15:19:31.338Z,11.57
2023-02-16T15:24:34.542Z,10.80
2023-02-16T15:29:37.614Z,10.95
2023-02-16T15:34:42.332Z,10.88
2023-02-16T15:40:00.788Z,10.80
2023-02-16T15:45:27.973Z,10.65
2023-02-16T15:50:33.538Z,11.50
2023-02-16T15:55:36.614Z,10.87
2023-02-16T16:00:41.514Z,10.73
2023-02-16T16:05:58.519Z,11.13
2023-02-16T16:11:00.583Z,10.90
2023-02-16T16:16:04.985Z,10.57
2023-02-16T16:21:18.930Z,10.30
2023-02-16T16:26:24.107Z,10.03
2023-02-16T16:31:39.904Z,10.37
2023-02-16T16:36:54.998Z,13.37
2023-02-16T16:42:17.289Z,10.73
2023-02-16T16:47:28.398Z,10.40
2023-02-16T16:52:42.569Z,10.30
2023-02-16T16:57:46.920Z,11.00
2023-02-16T17:02:51.004Z,10.47
2023-02-16T17:07:56.770Z,8.87
2023-02-16T17:13:03.339Z,9.97
2023-02-16T17:18:07.847Z,12.03
2023-02-16T17:23:17.033Z,10.70
2023-02-16T17:28:21.631Z,11.90
2023-02-16T17:33:24.647Z,12.03
2023-02-16T17:38:30.033Z,11.53
2023-02-16T17:43:35.542Z,10.97
2023-02-16T17:48:39.493Z,12.30
2023-02-16T17:53:43.975Z,14.17
2023-02-16T17:58:48.239Z,11.70
2023-02-16T18:03:54.291Z,13.63
2023-02-16T18:08:59.697Z,12.57
2023-02-16T18:14:03.651Z,13.80
2023-02-16T18:19:09.732Z,12.33
2023-02-16T18:24:15.573Z,12.70
2023-02-16T18:29:20.880Z,13.67
2023-02-16T18:34:26.376Z,11.53
2023-02-16T18:39:31.949Z,10.93
2023-02-16T18:44:36.293Z,11.57
2023-02-16T18:49:39.980Z,12.93
2023-02-16T18:54:52.969Z,13.47
2023-02-16T18:59:56.893Z,12.80
2023-02-16T19:05:01.872Z,12.30
2023-02-16T19:10:09.169Z,11.37
2023-02-16T19:15:12.534Z,12.97
2023-02-16T19:20:19.366Z,13.50
2023-02-16T19:25:25.880Z,12.97
2023-02-16T19:30:30.284Z,11.30
2023-02-16T19:35:35.202Z,13.20
2023-02-16T19:40:41.954Z,9.80
2023-02-16T19:45:45.903Z,12.17
2023-02-16T19:50:49.898Z,10.67
2023-02-16T19:55:55.991Z,9.00
2023-02-16T20:01:01.025Z,9.47
2023-02-16T20:06:15.373Z,9.73
2023-02-16T20:11:28.596Z,10.00
2023-02-16T20:16:32.027Z,10.57
2023-02-16T20:21:37.172Z,10.20
2023-02-16T20:26:44.238Z,10.90
2023-02-16T20:31:51.953Z,11.93
2023-02-16T20:36:56.407Z,11.20
2023-02-16T20:42:02.771Z,10.40
2023-02-16T20:47:08.732Z,11.50
2023-02-16T20:52:13.433Z,11.60
2023-02-16T20:57:26.809Z,11.17
2023-02-16T21:03:18.779Z,11.60
2023-02-16T21:08:27.913Z,11.97
2023-02-16T21:13:39.152Z,11.00
2023-02-16T21:18:51.270Z,6.13
2023-02-16T21:24:04.001Z,5.47
2023-02-16T21:29:08.723Z,7.97
2023-02-16T21:34:12.361Z,6.30
2023-02-16T21:39:15.653Z,6.30
2023-02-16T21:44:20.114Z,8.87
2023-02-16T21:49:23.120Z,9.20
2023-02-16T21:54:45.650Z,8.83
2023-02-16T21:59:49.709Z,8.80
2023-02-16T22:04:52.499Z,10.00
2023-02-16T22:09:54.701Z,9.00
2023-02-16T22:14:58.431Z,9.43
2023-02-16T22:20:01.205Z,8.60
2023-02-16T22:25:04.634Z,9.37
2023-02-16T22:30:09.820Z,9.43
2023-02-16T22:35:12.005Z,10.40
2023-02-16T22:40:14.286Z,10.03
2023-02-16T22:45:18.394Z,9.70
2023-02-16T22:50:21.061Z,8.00
2023-02-16T22:55:23.268Z,7.43
2023-02-16T23:00:26.928Z,7.93
2023-02-16T23:05:31.523Z,7.00
2023-02-16T23:10:34.049Z,4.13
2023-02-16T23:15:38.063Z,3.40
2023-02-16T23:20:40.279Z,3.37
2023-02-16T23:25:46.195Z,4.20
2023-02-16T23:30:50.728Z,4.37
2023-02-16T23:35:53.095Z,3.43
2023-02-16T23:40:59.592Z,4.83
2023-02-16T23:46:03.954Z,5.40
2023-02-16T23:51:06.367Z,6.50
2023-02-16T23:56:10.194Z,8.10
